Karin S — V2BM6 — position and weather

sailwx.info

Track history (hours):
 
Tides and Currents Weather Stations Pressure Air Temp Water Temp Dewpoint Dewpoint Depression Visibility Wind Speed Wind Dir Waves Ship Positions

Karin S

Last reported at 2015-May-04 20:33 UTC. Time now 2015-May-04 21:06 UTC.
Position N 38°12' E 001°22'.

Length 148 m; draft 6.9 m.

Type: Cargo ship. MMSI: 304871000.

Date/timePositionNaut miles runAvg speedWind from/ knotsBaromVisibWave heightAir tempDewpointWater temp
2015-May-04 20:33N 38°12' E 001°22'1312.7
2015-May-04 19:32N 38°03' E 001°34'1312.8
2015-May-04 18:33N 37°54' E 001°45'1313.0
2015-May-04 17:34N 37°45' E 001°57'1312.9
2015-May-04 16:32N 37°36' E 002°09'1312.8
2015-May-04 15:33N 37°29' E 002°22'1212.3
2015-May-04 14:33N 37°18' E 002°30'1312.8
2015-May-04 13:33N 37°09' E 002°42'1313.0
2015-May-04 12:33N 37°01' E 002°55'5 4.7
2015-May-04 11:33N 36°57' E 002°58'5 4.6
2015-May-04 10:33N 36°54' E 003°01'8 0.4
2015-May-03 12:31N 36°46' E 003°04'0 0.0
2015-May-03 11:31N 36°46' E 003°04'  
2015-May-01 00:06N 36°46' E 003°04'2 0.0
2015-Apr-28 22:27N 36°48' E 003°06'0 0.1
2015-Apr-28 21:29N 36°48' E 003°06'  
2015-Apr-26 03:04N 38°16' E 001°17'813.6
2015-Apr-26 02:27N 38°22' E 001°09'1213.5
2015-Apr-26 01:33N 38°31' E 000°58'1513.2
2015-Apr-26 00:24N 38°41' E 000°44'1113.0
2015-Apr-25 23:33N 38°49' E 000°34'1313.5
2015-Apr-25 22:33N 38°59' E 000°22'3212.9
2015-Apr-25 20:05N 39°21' W 000°07'712.7
2015-Apr-25 19:34N 39°24' W 000°15'4 3.9
2015-Apr-25 18:32N 39°26' W 000°19'0 0.0
2015-Apr-25 17:32N 39°26' W 000°19'0 0.0
2015-Apr-25 16:33N 39°26' W 000°19'0 0.0
2015-Apr-25 15:32N 39°26' W 000°19'0 0.0
2015-Apr-25 14:33N 39°26' W 000°19'0 0.0
2015-Apr-25 13:33N 39°26' W 000°19'0 0.0
2015-Apr-25 12:32N 39°26' W 000°19'0 0.0
2015-Apr-25 11:32N 39°26' W 000°19'0 0.0
2015-Apr-25 10:32N 39°26' W 000°19'0 0.0
2015-Apr-25 09:32N 39°26' W 000°19'2 2.3
2015-Apr-25 08:33N 39°25' W 000°18'0 0.4
2015-Apr-25 07:24N 39°24' W 000°18'0 0.2
2015-Apr-25 06:33N 39°24' W 000°18'0 0.1
2015-Apr-25 05:33N 39°24' W 000°18'0 0.0
2015-Apr-25 04:33N 39°24' W 000°18'0 0.1
2015-Apr-25 03:33N 39°24' W 000°18'2 2.3
2015-Apr-25 02:33N 39°26' W 000°19'0 0.4
2015-Apr-25 01:32N 39°26' W 000°19'0 0.0
2015-Apr-25 00:29N 39°26' W 000°19'0 0.0
2015-Apr-24 23:29N 39°26' W 000°19'0 0.0
2015-Apr-24 22:29N 39°26' W 000°19'0 0.0
2015-Apr-24 21:33N 39°26' W 000°19'  
Track history (hours):
 
Tides and Currents Weather Stations Pressure Air Temp Water Temp Dewpoint Dewpoint Depression Visibility Wind Speed Wind Dir Waves Ship Positions

Karin S

Last reported at 2015-May-04 20:33 UTC. Time now 2015-May-04 21:06 UTC.
Position N 38°12' E 001°22'.

Length 148 m; draft 6.9 m.

Type: Cargo ship. MMSI: 304871000.

Date/timePositionNaut miles runAvg speedWind from/ knotsBaromVisibWave heightAir tempDewpointWater temp
2015-May-04 20:33N 38°12' E 001°22'1312.7
2015-May-04 19:32N 38°03' E 001°34'1312.8
2015-May-04 18:33N 37°54' E 001°45'1313.0
2015-May-04 17:34N 37°45' E 001°57'1312.9
2015-May-04 16:32N 37°36' E 002°09'1312.8
2015-May-04 15:33N 37°29' E 002°22'1212.3
2015-May-04 14:33N 37°18' E 002°30'1312.8
2015-May-04 13:33N 37°09' E 002°42'1313.0
2015-May-04 12:33N 37°01' E 002°55'5 4.7
2015-May-04 11:33N 36°57' E 002°58'5 4.6
2015-May-04 10:33N 36°54' E 003°01'8 0.4
2015-May-03 12:31N 36°46' E 003°04'0 0.0
2015-May-03 11:31N 36°46' E 003°04'  
2015-May-01 00:06N 36°46' E 003°04'2 0.0
2015-Apr-28 22:27N 36°48' E 003°06'0 0.1
2015-Apr-28 21:29N 36°48' E 003°06'  
2015-Apr-26 03:04N 38°16' E 001°17'813.6
2015-Apr-26 02:27N 38°22' E 001°09'1213.5
2015-Apr-26 01:33N 38°31' E 000°58'1513.2
2015-Apr-26 00:24N 38°41' E 000°44'1113.0
2015-Apr-25 23:33N 38°49' E 000°34'1313.5
2015-Apr-25 22:33N 38°59' E 000°22'3212.9
2015-Apr-25 20:05N 39°21' W 000°07'712.7
2015-Apr-25 19:34N 39°24' W 000°15'4 3.9
2015-Apr-25 18:32N 39°26' W 000°19'0 0.0
2015-Apr-25 17:32N 39°26' W 000°19'0 0.0
2015-Apr-25 16:33N 39°26' W 000°19'0 0.0
2015-Apr-25 15:32N 39°26' W 000°19'0 0.0
2015-Apr-25 14:33N 39°26' W 000°19'0 0.0
2015-Apr-25 13:33N 39°26' W 000°19'0 0.0
2015-Apr-25 12:32N 39°26' W 000°19'0 0.0
2015-Apr-25 11:32N 39°26' W 000°19'0 0.0
2015-Apr-25 10:32N 39°26' W 000°19'0 0.0
2015-Apr-25 09:32N 39°26' W 000°19'2 2.3
2015-Apr-25 08:33N 39°25' W 000°18'0 0.4
2015-Apr-25 07:24N 39°24' W 000°18'0 0.2
2015-Apr-25 06:33N 39°24' W 000°18'0 0.1
2015-Apr-25 05:33N 39°24' W 000°18'0 0.0
2015-Apr-25 04:33N 39°24' W 000°18'0 0.1
2015-Apr-25 03:33N 39°24' W 000°18'2 2.3
2015-Apr-25 02:33N 39°26' W 000°19'0 0.4
2015-Apr-25 01:32N 39°26' W 000°19'0 0.0
2015-Apr-25 00:29N 39°26' W 000°19'0 0.0
2015-Apr-24 23:29N 39°26' W 000°19'0 0.0
2015-Apr-24 22:29N 39°26' W 000°19'0 0.0
2015-Apr-24 21:33N 39°26' W 000°19'  

Dump ship's entire track history